Time;durP1;ratioP1;P1;durP2;ratioP2;P2;SDS_P1;SDS_P2;PMS_P1;PMS_P2;Temp;Humidity;BMP_temperature;BMP_pressure;BME280_temperature;BME280_humidity;BME280_pressure;Samples;Min_cycle;Max_cycle;Signal;HPM_P1;HPM_P2
2022/04/18 00:02:06;;;;;;;4.18;3.38;;;5.50;56.40;;;;;;5056017;28;20037;-65
2022/04/18 00:04:33;;;;;;;4.47;3.45;;;5.50;56.50;;;;;;5050645;28;20441;-66
2022/04/18 00:07:00;;;;;;;4.53;3.20;;;5.50;56.50;;;;;;5058589;28;20099;-66
2022/04/18 00:09:26;;;;;;;4.47;3.38;;;5.40;56.60;;;;;;5055798;28;20278;-66
2022/04/18 00:11:51;;;;;;;4.47;3.05;;;5.40;56.60;;;;;;5051961;28;20033;-66
2022/04/18 00:14:17;;;;;;;4.13;3.63;;;5.40;56.50;;;;;;5054102;28;20081;-66
2022/04/18 00:16:43;;;;;;;3.50;3.20;;;5.40;56.50;;;;;;5056467;28;20036;-66
2022/04/18 00:19:09;;;;;;;4.70;3.58;;;5.40;56.50;;;;;;5055495;28;20033;-66
2022/04/18 00:21:34;;;;;;;3.92;3.38;;;5.40;56.70;;;;;;5056171;28;20032;-66
2022/04/18 00:24:00;;;;;;;5.30;3.50;;;5.40;56.80;;;;;;5056292;28;20024;-65
2022/04/18 00:26:25;;;;;;;6.40;4.28;;;5.30;56.90;;;;;;5056370;28;20032;-66
2022/04/18 00:28:51;;;;;;;11.10;4.97;;;5.30;56.90;;;;;;5054659;28;20060;-66
2022/04/18 00:31:17;;;;;;;13.50;6.28;;;5.20;56.90;;;;;;5056902;28;20079;-67
2022/04/18 00:33:42;;;;;;;13.38;6.72;;;5.20;56.90;;;;;;5051348;28;20067;-66
2022/04/18 00:36:08;;;;;;;12.15;5.97;;;5.20;56.90;;;;;;5054600;28;20109;-66
2022/04/18 00:38:34;;;;;;;10.57;5.88;;;5.10;56.90;;;;;;5053229;28;20044;-66
2022/04/18 00:40:59;;;;;;;9.95;5.78;;;5.10;56.90;;;;;;5056558;28;20575;-65
2022/04/18 00:43:46;;;;;;;6.95;4.70;;;5.10;57.20;;;;;;5054466;28;20437;-66
2022/04/18 00:46:13;;;;;;;8.65;4.63;;;5.10;58.10;;;;;;5056630;28;20037;-67
2022/04/18 00:48:39;;;;;;;8.10;4.85;;;5.00;57.20;;;;;;5053375;28;20055;-66
2022/04/18 00:51:07;;;;;;;6.78;4.93;;;5.00;57.30;;;;;;5055558;28;20699;-66
2022/04/18 00:53:34;;;;;;;6.38;4.57;;;5.00;57.60;;;;;;5052526;28;20119;-66
2022/04/18 00:56:00;;;;;;;7.80;4.97;;;4.90;58.30;;;;;;5056849;28;20039;-66
2022/04/18 00:58:25;;;;;;;5.78;4.50;;;4.90;57.80;;;;;;5054290;28;20032;-65
2022/04/18 01:00:51;;;;;;;7.63;4.68;;;4.80;57.80;;;;;;5058517;28;20408;-66
2022/04/18 01:03:19;;;;;;;5.65;4.30;;;4.80;58.00;;;;;;5049097;28;20036;-64
2022/04/18 01:05:46;;;;;;;6.35;4.10;;;4.70;58.20;;;;;;5052825;28;20590;-66
2022/04/18 01:08:12;;;;;;;6.13;4.40;;;4.70;58.40;;;;;;5055041;28;20060;-66
2022/04/18 01:10:38;;;;;;;5.65;4.28;;;4.70;58.60;;;;;;5052267;28;20112;-65
2022/04/18 01:13:04;;;;;;;7.28;5.18;;;4.60;58.50;;;;;;5055434;28;20174;-65
2022/04/18 01:15:30;;;;;;;8.10;5.38;;;4.60;58.60;;;;;;5054811;28;20113;-66
2022/04/18 01:17:56;;;;;;;6.72;5.35;;;4.50;58.70;;;;;;5055365;28;20040;-66
2022/04/18 01:20:21;;;;;;;7.13;5.38;;;4.40;58.70;;;;;;5053576;28;20040;-66
2022/04/18 01:22:51;;;;;;;9.25;5.57;;;4.40;58.70;;;;;;5055888;28;20429;-66
2022/04/18 01:30:53;;;;;;;6.45;4.75;;;4.20;58.90;;;;;;5055917;28;20066;-67
2022/04/18 01:33:19;;;;;;;9.15;4.82;;;4.20;59.00;;;;;;5051958;28;20032;-65
2022/04/18 01:35:45;;;;;;;8.68;4.78;;;4.10;59.10;;;;;;5056102;28;20077;-66
2022/04/18 01:38:10;;;;;;;7.63;4.90;;;4.10;59.20;;;;;;5056091;28;20048;-66
2022/04/18 01:40:36;;;;;;;10.45;5.13;;;4.10;59.30;;;;;;5054758;28;20040;-65
2022/04/18 01:43:02;;;;;;;7.95;4.95;;;4.10;59.50;;;;;;5054097;28;20080;-66
2022/04/18 01:45:27;;;;;;;9.63;5.38;;;4.10;59.50;;;;;;5056358;28;20221;-66
2022/04/18 01:47:53;;;;;;;9.70;4.97;;;4.10;59.50;;;;;;5055435;28;20085;-66
2022/04/18 01:50:19;;;;;;;9.02;5.38;;;4.10;59.60;;;;;;5055984;28;20036;-66
2022/04/18 01:52:44;;;;;;;8.80;5.32;;;4.00;59.50;;;;;;5054271;28;20119;-66
2022/04/18 01:55:10;;;;;;;7.72;4.85;;;4.00;59.40;;;;;;5051938;28;20263;-65
2022/04/18 01:57:36;;;;;;;7.55;4.60;;;4.10;59.50;;;;;;5056248;28;20056;-66
2022/04/18 02:00:02;;;;;;;8.43;4.80;;;4.10;59.50;;;;;;5056220;28;20556;-66
2022/04/18 02:02:28;;;;;;;6.72;4.18;;;4.10;59.50;;;;;;5056984;28;20032;-65
2022/04/18 02:04:54;;;;;;;6.20;4.28;;;4.00;59.50;;;;;;5057823;28;20493;-66
2022/04/18 02:07:21;;;;;;;7.15;4.72;;;4.00;59.60;;;;;;5057849;28;20032;-66
2022/04/18 02:09:47;;;;;;;7.10;4.97;;;4.00;59.60;;;;;;5059466;28;20619;-66
2022/04/18 02:12:13;;;;;;;7.60;4.50;;;4.00;59.50;;;;;;5057641;28;20039;-66
2022/04/18 02:14:38;;;;;;;6.35;4.22;;;4.00;59.70;;;;;;5058509;28;20032;-66
2022/04/18 02:17:04;;;;;;;7.45;4.43;;;3.90;59.70;;;;;;5059633;28;20029;-65
2022/04/18 02:19:30;;;;;;;6.70;4.80;;;3.90;59.70;;;;;;5057858;28;20102;-65
2022/04/18 02:21:55;;;;;;;7.60;4.75;;;3.80;59.80;;;;;;5059715;28;20040;-67
2022/04/18 02:24:21;;;;;;;8.77;4.72;;;3.80;59.80;;;;;;5058320;28;20065;-66
2022/04/18 02:26:46;;;;;;;6.18;4.50;;;3.70;59.90;;;;;;5055494;28;20512;-66
2022/04/18 02:29:12;;;;;;;8.10;4.63;;;3.80;60.00;;;;;;5056033;28;20052;-66
2022/04/18 02:32:47;;;;;;;4.82;4.13;;;3.70;59.90;;;;;;5058223;28;20119;-66
2022/04/18 02:34:23;;;;;;;5.95;4.30;;;3.70;60.00;;;;;;5058787;28;20028;-66
2022/04/18 02:36:49;;;;;;;6.72;4.63;;;3.80;60.00;;;;;;5055679;28;20048;-66
2022/04/18 02:39:15;;;;;;;7.22;4.45;;;3.70;60.00;;;;;;5058674;28;20358;-66
2022/04/18 02:41:40;;;;;;;6.25;4.63;;;3.70;60.20;;;;;;5058663;28;20037;-66
2022/04/18 02:44:06;;;;;;;7.35;4.38;;;3.70;60.40;;;;;;5057237;28;20059;-66
2022/04/18 02:46:32;;;;;;;5.85;4.80;;;3.60;60.40;;;;;;5056780;28;20034;-64
2022/04/18 02:48:57;;;;;;;6.25;4.60;;;3.60;60.40;;;;;;5059378;28;20045;-66
2022/04/18 02:51:27;;;;;;;6.28;4.88;;;3.60;60.70;;;;;;5055464;28;20032;-63
2022/04/18 02:53:56;;;;;;;7.70;4.40;;;3.50;60.70;;;;;;5056969;28;20059;-66
2022/04/18 02:56:22;;;;;;;6.20;4.75;;;3.50;60.90;;;;;;5057160;28;20037;-66
2022/04/18 02:58:48;;;;;;;5.57;4.75;;;3.50;60.70;;;;;;5056399;28;20037;-66
2022/04/18 03:01:14;;;;;;;6.68;4.32;;;3.50;60.90;;;;;;5056794;28;20056;-66
2022/04/18 03:03:39;;;;;;;6.85;4.72;;;3.40;61.30;;;;;;5057537;28;21909;-66
2022/04/18 03:06:05;;;;;;;6.65;4.70;;;3.40;61.50;;;;;;5055259;28;20455;-66
2022/04/18 03:08:32;;;;;;;7.18;4.88;;;3.40;61.80;;;;;;5056662;28;20116;-64
2022/04/18 03:11:05;;;;;;;7.68;4.50;;;3.40;62.00;;;;;;5057055;28;21281;-66
2022/04/18 03:13:36;;;;;;;6.05;4.80;;;3.40;62.30;;;;;;5056779;28;20032;-62
2022/04/18 03:16:02;;;;;;;6.43;4.75;;;3.40;62.30;;;;;;5059301;28;20040;-64
2022/04/18 03:18:28;;;;;;;5.47;4.57;;;3.40;62.30;;;;;;5056023;28;20044;-66
2022/04/18 03:20:54;;;;;;;5.35;4.85;;;3.40;62.30;;;;;;5057370;28;20035;-66
2022/04/18 03:23:19;;;;;;;4.32;3.92;;;3.40;62.40;;;;;;5056302;28;20040;-66
2022/04/18 03:25:45;;;;;;;8.73;4.65;;;3.40;62.40;;;;;;5056325;28;20167;-66
2022/04/18 03:28:11;;;;;;;5.72;4.45;;;3.50;62.50;;;;;;5056788;28;20063;-66
2022/04/18 03:30:37;;;;;;;5.32;4.50;;;3.50;62.50;;;;;;5056431;28;20036;-65
2022/04/18 03:33:03;;;;;;;7.18;4.40;;;3.60;62.40;;;;;;5057349;28;20020;-66
2022/04/18 03:35:30;;;;;;;7.68;4.45;;;3.60;62.20;;;;;;5057167;28;20555;-66
2022/04/18 03:40:40;;;;;;;6.40;4.40;;;3.70;62.00;;;;;;5054711;28;20051;-65
2022/04/18 03:43:06;;;;;;;6.30;4.55;;;3.80;61.90;;;;;;5056611;28;20029;-66
2022/04/18 03:45:32;;;;;;;7.90;4.50;;;3.80;61.90;;;;;;5056157;28;20064;-65
2022/04/18 03:47:58;;;;;;;6.00;4.60;;;3.80;61.80;;;;;;5056921;28;20111;-65
2022/04/18 03:50:23;;;;;;;6.95;4.35;;;3.80;61.90;;;;;;5057494;28;20638;-65
2022/04/18 03:52:49;;;;;;;5.25;4.43;;;3.80;61.90;;;;;;5056486;28;20032;-66
2022/04/18 03:55:14;;;;;;;12.50;6.72;;;3.80;61.70;;;;;;5054082;28;20029;-65
2022/04/18 03:57:40;;;;;;;15.80;8.70;;;3.80;61.80;;;;;;5055161;28;20044;-66
2022/04/18 04:00:07;;;;;;;5.70;4.65;;;3.80;61.90;;;;;;5058514;28;20382;-65
2022/04/18 04:02:33;;;;;;;6.90;4.97;;;3.70;62.00;;;;;;5052944;28;20037;-66
2022/04/18 04:04:59;;;;;;;5.90;4.32;;;3.80;62.00;;;;;;5057297;28;20032;-66
2022/04/18 04:07:24;;;;;;;8.05;5.00;;;3.80;62.00;;;;;;5056655;28;20037;-66
2022/04/18 04:09:50;;;;;;;6.30;4.25;;;3.80;62.00;;;;;;5057553;28;20037;-66
2022/04/18 04:12:23;;;;;;;5.90;4.38;;;3.80;61.90;;;;;;5056131;28;20031;-65
2022/04/18 04:14:52;;;;;;;5.85;4.30;;;3.80;62.40;;;;;;5056180;28;20029;-66
2022/04/18 04:17:18;;;;;;;5.63;4.15;;;3.80;62.10;;;;;;5055687;28;20497;-65
2022/04/18 04:19:44;;;;;;;5.75;4.05;;;3.80;61.90;;;;;;5057065;28;20041;-65
2022/04/18 04:22:10;;;;;;;6.70;4.40;;;3.80;61.90;;;;;;5055061;28;20248;-65
2022/04/18 04:24:36;;;;;;;5.00;4.30;;;3.80;61.80;;;;;;5054603;28;20024;-66
2022/04/18 04:27:02;;;;;;;6.95;4.13;;;3.90;61.80;;;;;;5058013;28;20497;-65
2022/04/18 04:29:28;;;;;;;6.43;3.80;;;3.90;61.80;;;;;;5054085;28;20033;-65
2022/04/18 04:31:53;;;;;;;5.97;4.20;;;3.90;61.60;;;;;;5057046;28;20155;-66
2022/04/18 04:34:19;;;;;;;5.18;3.97;;;4.00;61.60;;;;;;5055925;28;20043;-64
2022/04/18 04:36:44;;;;;;;5.65;3.85;;;3.90;61.60;;;;;;5053867;28;20128;-65
2022/04/18 04:39:10;;;;;;;6.53;4.18;;;4.00;61.60;;;;;;5055299;28;20043;-66
2022/04/18 04:41:37;;;;;;;4.38;3.80;;;3.90;61.50;;;;;;5054837;28;20040;-65
2022/04/18 04:44:03;;;;;;;5.10;3.85;;;4.00;61.60;;;;;;5055093;28;20447;-65
2022/04/18 04:46:29;;;;;;;4.35;3.42;;;4.00;61.60;;;;;;5054860;28;20091;-65
2022/04/18 04:48:55;;;;;;;5.82;3.47;;;3.90;61.40;;;;;;5055901;28;20044;-66
2022/04/18 04:51:21;;;;;;;5.75;3.63;;;4.00;61.60;;;;;;5055758;28;20033;-65
2022/04/18 04:53:48;;;;;;;5.60;3.90;;;4.00;61.60;;;;;;5071205;28;20340;-66
2022/04/18 04:56:14;;;;;;;6.90;4.03;;;4.00;61.50;;;;;;5057004;28;20068;-66
2022/04/18 04:58:39;;;;;;;7.32;4.05;;;4.00;61.40;;;;;;5052310;28;20162;-65
2022/04/18 05:01:07;;;;;;;6.43;3.60;;;4.00;61.50;;;;;;5054139;28;20107;-66
2022/04/18 05:03:32;;;;;;;4.30;3.63;;;4.10;61.60;;;;;;5052924;28;20031;-66
2022/04/18 05:05:58;;;;;;;4.55;3.63;;;4.10;61.50;;;;;;5053216;28;20032;-66
2022/04/18 05:08:24;;;;;;;6.45;4.28;;;4.10;61.40;;;;;;5055838;28;20028;-66
2022/04/18 05:10:49;;;;;;;6.28;4.03;;;4.20;61.60;;;;;;5034024;28;20493;-66
2022/04/18 05:13:15;;;;;;;5.70;3.80;;;4.20;61.60;;;;;;5056342;28;20106;-65
2022/04/18 05:15:41;;;;;;;4.28;3.40;;;4.10;61.50;;;;;;5053881;28;20036;-66
2022/04/18 05:18:06;;;;;;;8.52;3.80;;;4.10;61.40;;;;;;5054691;28;20439;-66
2022/04/18 05:20:32;;;;;;;5.47;3.65;;;4.10;61.50;;;;;;5051467;28;20454;-63
2022/04/18 05:22:58;;;;;;;5.75;3.70;;;4.10;61.60;;;;;;5055979;28;20524;-66
2022/04/18 05:25:24;;;;;;;5.00;3.80;;;4.10;61.60;;;;;;5054959;28;20107;-66
2022/04/18 05:27:51;;;;;;;5.65;3.80;;;4.10;61.70;;;;;;5054141;28;21630;-66
2022/04/18 05:30:16;;;;;;;5.25;3.42;;;4.10;61.70;;;;;;5054031;28;20056;-66
2022/04/18 05:32:43;;;;;;;5.13;3.38;;;4.20;61.80;;;;;;5053369;28;20052;-66
2022/04/18 05:35:09;;;;;;;7.07;3.45;;;4.20;61.80;;;;;;5055363;28;20033;-65
2022/04/18 05:37:35;;;;;;;4.13;3.33;;;4.20;61.90;;;;;;5055247;28;20036;-66
2022/04/18 05:40:00;;;;;;;4.50;3.50;;;4.30;62.10;;;;;;5061284;28;20029;-66
2022/04/18 05:42:26;;;;;;;4.72;3.40;;;4.30;61.90;;;;;;5058257;28;20124;-66
2022/04/18 05:44:51;;;;;;;5.70;3.67;;;4.40;61.80;;;;;;5059119;28;20061;-66
2022/04/18 05:47:17;;;;;;;3.95;3.15;;;4.40;61.80;;;;;;5058177;28;20123;-65
2022/04/18 05:49:43;;;;;;;4.05;3.38;;;4.50;61.80;;;;;;5058379;28;20047;-65
2022/04/18 05:52:08;;;;;;;5.63;3.47;;;4.50;61.80;;;;;;5056693;28;20066;-66
2022/04/18 05:54:34;;;;;;;4.80;3.10;;;4.60;61.70;;;;;;5057738;28;20300;-64
2022/04/18 05:57:03;;;;;;;4.40;3.35;;;4.70;61.80;;;;;;5058999;28;20045;-66
2022/04/18 05:59:28;;;;;;;6.28;2.95;;;4.70;61.60;;;;;;5057215;28;20036;-66
2022/04/18 06:01:54;;;;;;;5.07;3.60;;;4.80;61.50;;;;;;5057700;28;20043;-66
2022/04/18 06:04:19;;;;;;;7.45;3.47;;;4.90;61.70;;;;;;5057847;28;20469;-65
2022/04/18 06:06:45;;;;;;;5.25;3.42;;;4.90;61.50;;;;;;5054638;28;20033;-66
2022/04/18 06:09:10;;;;;;;3.72;3.00;;;5.00;61.40;;;;;;5059911;28;20037;-66
2022/04/18 06:11:36;;;;;;;5.15;3.58;;;5.00;61.30;;;;;;5057861;28;20040;-66
2022/04/18 06:14:02;;;;;;;5.32;3.80;;;5.00;61.50;;;;;;5055316;28;20033;-65
2022/04/18 06:16:28;;;;;;;5.53;3.88;;;5.10;61.40;;;;;;5056870;28;20040;-64
2022/04/18 06:18:54;;;;;;;7.05;3.78;;;5.10;61.40;;;;;;5059491;28;20105;-66
2022/04/18 06:21:19;;;;;;;4.43;3.60;;;5.20;62.30;;;;;;5059620;28;20040;-65
2022/04/18 06:23:45;;;;;;;5.40;3.67;;;5.30;61.40;;;;;;5069772;28;20734;-66
2022/04/18 06:26:11;;;;;;;4.93;3.80;;;5.40;61.40;;;;;;5057708;28;20037;-63
2022/04/18 06:28:36;;;;;;;5.13;3.85;;;5.40;61.50;;;;;;5055321;28;20558;-66
2022/04/18 06:31:02;;;;;;;4.70;3.80;;;5.50;61.40;;;;;;5060494;28;20434;-65
2022/04/18 06:33:29;;;;;;;5.53;3.95;;;5.60;61.30;;;;;;5057554;28;20080;-65
2022/04/18 06:35:55;;;;;;;5.65;3.95;;;5.60;61.20;;;;;;5058786;28;20028;-65
2022/04/18 06:38:21;;;;;;;4.72;4.10;;;5.80;61.30;;;;;;5057213;28;20128;-66
2022/04/18 06:40:46;;;;;;;5.15;3.95;;;5.80;61.30;;;;;;5056509;28;20167;-65
2022/04/18 06:43:15;;;;;;;4.40;3.92;;;5.90;61.30;;;;;;5060381;28;20052;-66
2022/04/18 06:45:40;;;;;;;7.47;4.22;;;6.00;61.10;;;;;;5059284;28;20029;-65
2022/04/18 06:48:06;;;;;;;5.10;4.40;;;6.00;60.90;;;;;;5058701;28;20044;-65
2022/04/18 06:50:32;;;;;;;5.75;4.53;;;6.10;61.30;;;;;;5057872;28;20040;-66
2022/04/18 06:52:57;;;;;;;4.35;3.75;;;6.20;60.90;;;;;;5057900;28;20731;-66
2022/04/18 06:55:23;;;;;;;7.28;4.47;;;6.30;60.90;;;;;;5057325;28;20024;-65
2022/04/18 06:57:50;;;;;;;5.25;4.43;;;6.30;60.80;;;;;;5057747;28;20442;-65
2022/04/18 07:00:16;;;;;;;6.55;4.20;;;6.40;61.00;;;;;;5057449;28;20056;-66
2022/04/18 07:02:46;;;;;;;4.88;3.97;;;6.50;60.80;;;;;;5059365;28;20087;-63
2022/04/18 07:05:11;;;;;;;5.95;4.57;;;6.50;60.70;;;;;;5058254;28;20025;-66
2022/04/18 07:07:37;;;;;;;7.50;4.50;;;6.70;60.70;;;;;;5057583;28;20461;-65
2022/04/18 07:10:04;;;;;;;5.40;4.20;;;6.70;60.60;;;;;;5058855;28;20086;-66
2022/04/18 07:12:30;;;;;;;4.22;3.83;;;6.80;60.60;;;;;;5059466;28;20031;-66
2022/04/18 07:14:58;;;;;;;6.63;4.45;;;6.90;60.50;;;;;;5054711;28;20032;-66
2022/04/18 07:17:24;;;;;;;5.55;4.13;;;7.00;60.30;;;;;;5056891;28;20120;-65
2022/04/18 07:19:50;;;;;;;5.03;4.15;;;7.10;60.20;;;;;;5056637;28;20108;-66
2022/04/18 07:22:16;;;;;;;6.20;4.47;;;7.20;60.00;;;;;;5059256;28;20489;-66
2022/04/18 07:24:42;;;;;;;5.38;4.53;;;7.20;59.90;;;;;;5054418;28;20033;-66
2022/04/18 07:27:07;;;;;;;6.07;4.20;;;7.30;59.80;;;;;;5055727;28;20029;-66
2022/04/18 07:29:33;;;;;;;4.95;4.28;;;7.50;59.80;;;;;;5054489;28;20182;-65
2022/04/18 07:31:58;;;;;;;5.53;4.75;;;7.50;59.70;;;;;;5055077;28;20029;-66
2022/04/18 07:34:24;;;;;;;5.40;4.35;;;7.60;59.70;;;;;;5068291;28;20048;-66
2022/04/18 07:36:49;;;;;;;5.47;4.18;;;7.70;59.50;;;;;;5056533;28;20097;-63
2022/04/18 07:39:15;;;;;;;5.40;4.20;;;7.80;59.60;;;;;;5056668;28;20028;-63
2022/04/18 07:41:41;;;;;;;5.43;4.20;;;8.00;59.40;;;;;;5053871;28;20062;-64
2022/04/18 07:44:06;;;;;;;6.03;4.22;;;8.00;59.20;;;;;;5058608;28;20043;-63
2022/04/18 07:46:32;;;;;;;5.18;4.22;;;8.20;59.10;;;;;;5055704;28;20036;-64
2022/04/18 07:48:59;;;;;;;4.93;4.20;;;8.30;58.80;;;;;;5055752;28;20090;-64
2022/04/18 07:51:41;;;;;;;4.90;4.40;;;8.40;58.60;;;;;;5057129;28;20608;-63
2022/04/18 07:54:09;;;;;;;4.88;4.13;;;8.50;58.40;;;;;;5055655;28;20119;-65
2022/04/18 07:56:35;;;;;;;5.97;4.10;;;8.60;58.30;;;;;;5054566;28;20039;-65
2022/04/18 07:59:01;;;;;;;4.30;3.95;;;8.70;58.20;;;;;;5055408;28;20119;-66
2022/04/18 08:01:27;;;;;;;5.35;4.40;;;8.80;58.10;;;;;;5052709;28;20035;-66
2022/04/18 08:03:54;;;;;;;5.30;4.30;;;8.90;57.90;;;;;;5054781;28;20681;-67
2022/04/18 08:06:20;;;;;;;4.45;4.00;;;9.00;57.90;;;;;;5059746;28;20040;-66
2022/04/18 08:08:46;;;;;;;5.78;4.20;;;9.10;58.00;;;;;;5054892;28;20044;-64
2022/04/18 08:11:14;;;;;;;4.05;3.55;;;9.20;58.00;;;;;;5054064;28;20041;-64
2022/04/18 08:13:44;;;;;;;4.28;3.70;;;9.30;57.40;;;;;;5056801;28;20047;-65
2022/04/18 08:16:10;;;;;;;3.50;3.20;;;9.50;57.20;;;;;;5059247;28;20033;-66
2022/04/18 08:18:39;;;;;;;4.97;3.60;;;9.60;56.90;;;;;;5056039;28;20029;-66
2022/04/18 08:21:08;;;;;;;3.80;3.45;;;9.70;56.40;;;;;;5055769;28;20087;-65
2022/04/18 08:23:34;;;;;;;5.22;3.63;;;9.90;56.20;;;;;;5055394;28;20473;-65
2022/04/18 08:26:00;;;;;;;3.70;3.33;;;10.00;55.80;;;;;;5053763;28;20406;-66
2022/04/18 08:28:26;;;;;;;6.25;3.53;;;10.20;55.60;;;;;;5055580;28;20265;-65
2022/04/18 08:30:53;;;;;;;3.95;3.33;;;10.40;55.10;;;;;;5056062;28;20555;-66
2022/04/18 08:33:19;;;;;;;4.32;3.22;;;10.50;54.90;;;;;;5055831;28;20036;-66
2022/04/18 08:35:44;;;;;;;4.38;3.10;;;10.60;54.80;;;;;;5056079;28;20089;-65
2022/04/18 08:38:10;;;;;;;4.20;3.20;;;10.80;54.50;;;;;;5056415;28;20032;-64
2022/04/18 08:40:37;;;;;;;4.35;3.38;;;10.90;54.20;;;;;;5052734;28;20468;-65
2022/04/18 08:43:03;;;;;;;3.47;3.13;;;11.00;53.90;;;;;;5044772;28;20108;-64
2022/04/18 08:45:29;;;;;;;3.40;2.78;;;11.10;53.60;;;;;;5053145;28;20043;-64
2022/04/18 08:53:27;;;;;;;4.00;2.90;;;11.50;52.90;;;;;;5048879;28;20036;-64
2022/04/18 08:55:54;;;;;;;3.38;3.08;;;11.60;53.00;;;;;;5048057;28;20024;-65
2022/04/18 08:58:21;;;;;;;4.13;3.10;;;11.70;52.00;;;;;;5054735;28;20041;-66
2022/04/18 09:00:47;;;;;;;3.42;2.88;;;11.80;51.70;;;;;;5050441;28;20040;-63
2022/04/18 09:03:13;;;;;;;4.65;2.90;;;11.80;51.30;;;;;;5052173;28;20413;-65
2022/04/18 09:05:39;;;;;;;4.50;3.00;;;11.90;51.10;;;;;;5053993;28;20037;-62
2022/04/18 09:08:07;;;;;;;3.78;3.15;;;12.00;51.00;;;;;;5051355;28;20033;-65
2022/04/18 09:10:34;;;;;;;3.40;2.95;;;12.10;50.80;;;;;;5055364;28;20520;-66
2022/04/18 09:13:11;;;;;;;4.07;3.15;;;12.20;50.60;;;;;;5058854;28;20029;-66
2022/04/18 09:15:42;;;;;;;4.13;3.25;;;12.20;50.50;;;;;;5056366;28;20057;-65
2022/04/18 09:18:17;;;;;;;4.40;3.17;;;12.30;50.40;;;;;;5055634;28;20036;-65
2022/04/18 09:20:49;;;;;;;3.25;2.95;;;12.40;50.20;;;;;;5057329;28;20044;-65
2022/04/18 09:23:29;;;;;;;4.15;3.10;;;12.50;50.20;;;;;;5057786;28;20517;-66
2022/04/18 09:26:09;;;;;;;3.47;3.08;;;12.50;50.00;;;;;;5056635;28;20039;-65
2022/04/18 09:28:42;;;;;;;3.22;2.70;;;12.60;50.20;;;;;;5057056;28;20029;-66
2022/04/18 09:31:10;;;;;;;3.30;3.00;;;12.70;50.00;;;;;;5057223;28;20517;-66
2022/04/18 09:33:38;;;;;;;3.72;2.88;;;12.80;49.90;;;;;;5057397;28;20490;-66
2022/04/18 09:36:09;;;;;;;3.22;2.80;;;12.90;50.10;;;;;;5055373;28;20143;-65
2022/04/18 09:38:38;;;;;;;5.32;3.05;;;13.00;49.20;;;;;;5055701;28;20028;-65
2022/04/18 09:41:03;;;;;;;2.88;2.65;;;13.00;49.00;;;;;;5056007;28;20082;-66
2022/04/18 09:43:43;;;;;;;3.17;2.88;;;13.10;48.90;;;;;;5052457;28;20036;-64
2022/04/18 09:46:09;;;;;;;4.72;3.08;;;13.20;48.60;;;;;;5038751;28;20065;-66
2022/04/18 09:48:36;;;;;;;4.25;3.38;;;13.30;49.00;;;;;;5054941;28;20036;-66
2022/04/18 09:51:26;;;;;;;3.20;2.90;;;13.30;48.60;;;;;;5060349;28;20029;-65
2022/04/18 09:53:59;;;;;;;2.97;2.70;;;13.40;47.90;;;;;;5056191;28;20167;-66
2022/04/18 09:56:29;;;;;;;3.72;3.15;;;13.50;49.00;;;;;;5056201;28;20056;-66
2022/04/18 09:58:56;;;;;;;3.15;2.70;;;13.60;48.50;;;;;;5056463;28;20032;-66
2022/04/18 10:01:22;;;;;;;3.10;2.65;;;13.70;48.40;;;;;;5058083;28;20040;-66
2022/04/18 10:03:52;;;;;;;3.20;2.90;;;13.80;48.40;;;;;;5056566;28;20360;-66
2022/04/18 10:06:19;;;;;;;3.53;3.00;;;13.90;47.90;;;;;;5058361;28;20086;-66
2022/04/18 10:08:45;;;;;;;3.58;3.00;;;13.90;46.20;;;;;;5056823;28;20509;-64
2022/04/18 10:11:14;;;;;;;3.95;2.80;;;14.00;46.70;;;;;;5055031;28;20067;-64
2022/04/18 10:13:39;;;;;;;3.10;2.80;;;14.00;46.60;;;;;;5056588;28;20125;-64
2022/04/18 10:16:07;;;;;;;3.53;2.90;;;14.10;46.50;;;;;;5056939;28;20108;-63
2022/04/18 10:18:41;;;;;;;3.17;2.45;;;14.10;46.10;;;;;;5056321;28;20063;-64
2022/04/18 10:21:06;;;;;;;3.45;2.65;;;14.20;46.30;;;;;;5057220;28;20021;-64
2022/04/18 10:24:10;;;;;;;4.15;2.50;;;14.20;46.30;;;;;;5058878;28;20025;-63
2022/04/18 10:27:24;;;;;;;3.08;2.78;;;14.30;45.60;;;;;;5061124;28;20029;-64
2022/04/18 10:29:53;;;;;;;5.25;2.80;;;14.30;45.20;;;;;;5062352;28;20086;-66
2022/04/18 10:32:24;;;;;;;3.42;2.65;;;14.40;46.00;;;;;;5059191;28;20033;-66
2022/04/18 10:34:51;;;;;;;3.45;2.35;;;14.50;46.10;;;;;;5055175;28;20097;-66
2022/04/18 10:37:21;;;;;;;2.45;2.25;;;14.50;45.60;;;;;;5059745;28;20445;-66
2022/04/18 10:39:56;;;;;;;2.80;2.53;;;14.60;45.30;;;;;;5060802;28;20028;-65
2022/04/18 10:42:27;;;;;;;2.53;2.33;;;14.60;44.40;;;;;;5054647;28;20540;-66
2022/04/18 10:45:17;;;;;;;2.58;2.38;;;14.70;44.70;;;;;;5056253;28;20056;-66
2022/04/18 10:47:55;;;;;;;2.50;2.28;;;14.70;44.20;;;;;;5059049;28;20028;-66
2022/04/18 10:50:25;;;;;;;2.40;2.20;;;14.80;44.10;;;;;;5059965;28;20036;-67
2022/04/18 10:53:09;;;;;;;3.30;2.58;;;14.80;44.70;;;;;;5042092;28;20059;-66
2022/04/18 10:55:39;;;;;;;3.25;2.55;;;14.90;44.00;;;;;;5058879;28;20033;-66
2022/04/18 10:58:15;;;;;;;3.38;2.33;;;14.90;44.50;;;;;;5059379;28;20521;-66
2022/04/18 11:00:49;;;;;;;3.40;2.40;;;15.00;44.30;;;;;;5057664;28;20036;-66
2022/04/18 11:03:34;;;;;;;3.30;2.30;;;15.10;44.10;;;;;;5057427;28;20060;-66
2022/04/18 11:06:07;;;;;;;2.67;2.40;;;15.10;43.70;;;;;;5055522;28;20043;-66
2022/04/18 11:08:38;;;;;;;3.38;2.58;;;15.10;43.80;;;;;;5057251;28;20505;-66
2022/04/18 11:11:15;;;;;;;3.45;2.70;;;15.20;42.50;;;;;;5052533;28;20033;-66
2022/04/18 11:13:47;;;;;;;2.20;2.00;;;15.20;43.10;;;;;;5054615;28;20395;-67
2022/04/18 11:16:22;;;;;;;2.83;2.33;;;15.20;43.40;;;;;;5056950;28;20465;-67
2022/04/18 11:19:09;;;;;;;2.78;2.33;;;15.20;42.70;;;;;;5057264;28;20035;-66
2022/04/18 11:22:00;;;;;;;2.70;2.38;;;15.30;41.60;;;;;;5055838;28;20047;-65
2022/04/18 11:24:38;;;;;;;4.00;2.72;;;15.30;42.40;;;;;;5057413;28;20055;-66
2022/04/18 11:27:16;;;;;;;2.40;2.20;;;15.30;42.20;;;;;;5059280;28;20025;-66
2022/04/18 11:29:50;;;;;;;2.40;2.20;;;15.30;42.60;;;;;;5063273;28;20052;-67
2022/04/18 11:32:18;;;;;;;5.03;2.63;;;15.30;43.10;;;;;;5059391;28;20052;-67
2022/04/18 11:34:47;;;;;;;2.67;2.47;;;15.40;42.50;;;;;;5060513;28;20517;-68
2022/04/18 11:37:27;;;;;;;2.90;2.35;;;15.40;42.50;;;;;;5057260;28;20037;-66
2022/04/18 11:39:58;;;;;;;2.40;2.20;;;15.40;42.20;;;;;;5058361;28;20048;-66
2022/04/18 11:42:29;;;;;;;2.50;2.17;;;15.40;42.10;;;;;;5059800;28;20162;-67
2022/04/18 11:44:57;;;;;;;5.53;2.20;;;15.40;42.60;;;;;;5059005;28;20035;-66
2022/04/18 11:47:24;;;;;;;2.67;2.42;;;15.50;42.70;;;;;;5058288;28;20036;-67
2022/04/18 11:49:55;;;;;;;2.75;2.08;;;15.50;42.10;;;;;;5057575;28;20048;-64
2022/04/18 11:52:25;;;;;;;3.15;2.30;;;15.50;41.60;;;;;;5058185;28;20430;-63
2022/04/18 11:54:54;;;;;;;2.80;2.15;;;15.50;41.90;;;;;;5059859;28;20493;-66
2022/04/18 11:57:20;;;;;;;2.30;2.05;;;15.60;42.10;;;;;;5075739;28;20040;-66
2022/04/18 11:59:48;;;;;;;2.72;2.00;;;15.60;42.30;;;;;;5059435;28;20036;-66
2022/04/18 12:07:44;;;;;;;3.10;2.20;;;15.80;41.90;;;;;;5060541;28;20044;-66
2022/04/18 12:10:28;;;;;;;2.78;1.70;;;15.80;41.70;;;;;;5057658;28;20029;-66
2022/04/18 12:12:54;;;;;;;2.30;2.10;;;15.90;40.00;;;;;;5055520;28;20021;-66
2022/04/18 12:15:22;;;;;;;2.78;2.10;;;15.90;41.10;;;;;;5056584;28;20029;-66
2022/04/18 12:17:48;;;;;;;2.33;2.00;;;15.90;40.70;;;;;;5057861;28;20040;-66
2022/04/18 12:20:29;;;;;;;2.38;2.13;;;15.90;40.40;;;;;;5058200;28;20029;-66
2022/04/18 12:23:03;;;;;;;2.05;1.95;;;15.90;39.90;;;;;;5043393;28;20445;-66
2022/04/18 12:25:33;;;;;;;2.35;2.13;;;15.90;40.40;;;;;;5055921;28;20094;-66
2022/04/18 12:28:04;;;;;;;2.53;1.98;;;15.90;39.60;;;;;;5057232;28;20032;-66
2022/04/18 12:30:30;;;;;;;2.97;2.67;;;15.90;40.10;;;;;;5057076;28;20067;-66
2022/04/18 12:33:15;;;;;;;2.55;2.35;;;15.90;40.50;;;;;;5056787;28;20468;-65
2022/04/18 12:35:48;;;;;;;2.75;2.40;;;15.90;39.70;;;;;;5058920;28;20037;-66
2022/04/18 12:38:16;;;;;;;3.67;2.30;;;15.90;39.80;;;;;;5056167;28;20036;-66
2022/04/18 12:40:56;;;;;;;2.17;1.98;;;15.90;40.50;;;;;;5058254;28;20108;-66
2022/04/18 12:43:29;;;;;;;2.05;1.85;;;15.90;40.20;;;;;;5058960;28;20064;-66
2022/04/18 12:46:01;;;;;;;2.35;2.15;;;16.00;40.40;;;;;;5057624;28;20024;-66
2022/04/18 12:48:35;;;;;;;2.70;2.28;;;16.00;40.10;;;;;;5060386;28;20032;-66
2022/04/18 12:51:03;;;;;;;3.33;1.77;;;16.10;38.50;;;;;;5057076;28;20051;-66
2022/04/18 12:53:46;;;;;;;2.88;2.05;;;16.10;39.70;;;;;;5056912;28;20025;-63
2022/04/18 12:56:14;;;;;;;2.28;2.08;;;16.10;39.50;;;;;;5075133;28;20025;-66
2022/04/18 12:58:41;;;;;;;1.90;1.67;;;16.10;39.80;;;;;;5071915;28;20088;-65
2022/04/18 13:01:07;;;;;;;3.42;1.80;;;16.10;39.80;;;;;;5057725;28;20513;-66
2022/04/18 13:03:44;;;;;;;2.60;2.10;;;16.20;39.90;;;;;;5057251;28;20078;-66
2022/04/18 13:06:10;;;;;;;2.63;1.85;;;16.20;39.20;;;;;;5057712;28;20488;-66
2022/04/18 13:08:40;;;;;;;2.30;1.92;;;16.20;39.60;;;;;;5056509;28;20715;-64
2022/04/18 13:11:07;;;;;;;2.05;1.85;;;16.20;39.00;;;;;;5055853;28;20043;-66
2022/04/18 13:13:33;;;;;;;3.60;1.70;;;16.20;39.50;;;;;;5060660;28;20029;-66
2022/04/18 13:16:22;;;;;;;3.47;2.45;;;16.30;39.90;;;;;;5058067;28;20033;-66
2022/04/18 13:19:00;;;;;;;2.22;2.03;;;16.30;38.70;;;;;;5060015;28;20085;-65